Terminal Aerodrome Forecast
Issued by NWS

Home | Current Version | Previous Version | Text Only | Print | Product List | Glossary On
Versions: 1 2 3 4 5 6 7 8 9 10 11 12 13
000
FTUS43 KGRR 292300
TAFAZO
TAF
KAZO 292340Z 3000/3024 20015G20KT P6SM VCSH OVC035
     FM300130 22015G19KT P6SM -SHRA OVC025
     FM300330 26013G20KT P6SM SCT015 BKN035
     FM300700 28010KT P6SM FEW035=

USA.gov is the U.S. government's official web portal to all federal, state and local government web resources and services.